sensor_id;sensor_type;location;lat;lon;timestamp;pressure;altitude;pressure_sealevel;temperature;humidity
49835;BME280;35729;52.090;13.162;2023-04-24T00:01:10;99701.47;;;11.08;77.14
49835;BME280;35729;52.090;13.162;2023-04-24T00:03:39;99708.53;;;11.07;77.35
49835;BME280;35729;52.090;13.162;2023-04-24T00:06:07;99698.94;;;11.06;77.46
49835;BME280;35729;52.090;13.162;2023-04-24T00:08:38;99689.34;;;11.05;77.69
49835;BME280;35729;52.090;13.162;2023-04-24T00:11:08;99689.41;;;11.04;77.99
49835;BME280;35729;52.090;13.162;2023-04-24T00:13:37;99673.72;;;11.02;78.09
49835;BME280;35729;52.090;13.162;2023-04-24T00:16:06;99682.59;;;11.00;78.35
49835;BME280;35729;52.090;13.162;2023-04-24T00:18:34;99688.69;;;11.00;78.56
49835;BME280;35729;52.090;13.162;2023-04-24T00:21:03;99692.16;;;11.01;78.71
49835;BME280;35729;52.090;13.162;2023-04-24T00:23:32;99693.84;;;11.02;78.96
49835;BME280;35729;52.090;13.162;2023-04-24T00:26:03;99688.50;;;11.05;79.39
49835;BME280;35729;52.090;13.162;2023-04-24T00:28:32;99686.69;;;11.07;79.55
49835;BME280;35729;52.090;13.162;2023-04-24T00:31:00;99687.38;;;11.11;79.74
49835;BME280;35729;52.090;13.162;2023-04-24T00:33:29;99685.47;;;11.14;79.79
49835;BME280;35729;52.090;13.162;2023-04-24T00:35:57;99686.28;;;11.16;80.07
49835;BME280;35729;52.090;13.162;2023-04-24T00:38:26;99677.63;;;11.14;80.31
49835;BME280;35729;52.090;13.162;2023-04-24T00:40:55;99684.41;;;11.20;80.48
49835;BME280;35729;52.090;13.162;2023-04-24T00:43:26;99687.75;;;11.23;80.64
49835;BME280;35729;52.090;13.162;2023-04-24T00:45:54;99681.56;;;11.24;80.58
49835;BME280;35729;52.090;13.162;2023-04-24T00:48:23;99680.56;;;11.27;80.76
49835;BME280;35729;52.090;13.162;2023-04-24T00:50:53;99671.72;;;11.30;80.90
49835;BME280;35729;52.090;13.162;2023-04-24T00:53:22;99665.56;;;11.31;81.20
49835;BME280;35729;52.090;13.162;2023-04-24T00:55:51;99672.41;;;11.35;81.43
49835;BME280;35729;52.090;13.162;2023-04-24T00:58:19;99668.72;;;11.39;81.35
49835;BME280;35729;52.090;13.162;2023-04-24T01:00:52;99665.03;;;11.43;81.55
49835;BME280;35729;52.090;13.162;2023-04-24T01:03:22;99657.81;;;11.48;81.73
49835;BME280;35729;52.090;13.162;2023-04-24T01:05:53;99663.66;;;11.55;81.81
49835;BME280;35729;52.090;13.162;2023-04-24T01:08:24;99661.75;;;11.58;81.88
49835;BME280;35729;52.090;13.162;2023-04-24T01:10:52;99655.31;;;11.66;81.81
49835;BME280;35729;52.090;13.162;2023-04-24T01:13:21;99648.09;;;11.71;81.75
49835;BME280;35729;52.090;13.162;2023-04-24T01:15:52;99649.59;;;11.77;81.57
49835;BME280;35729;52.090;13.162;2023-04-24T01:18:21;99646.75;;;11.81;81.58
49835;BME280;35729;52.090;13.162;2023-04-24T01:20:51;99645.75;;;11.84;81.41
49835;BME280;35729;52.090;13.162;2023-04-24T01:23:23;99650.03;;;11.86;81.35
49835;BME280;35729;52.090;13.162;2023-04-24T01:25:52;99653.19;;;11.95;81.40
49835;BME280;35729;52.090;13.162;2023-04-24T01:28:21;99652.22;;;11.97;81.52
49835;BME280;35729;52.090;13.162;2023-04-24T01:30:50;99646.81;;;12.00;81.20
49835;BME280;35729;52.090;13.162;2023-04-24T01:33:20;99651.06;;;12.03;81.09
49835;BME280;35729;52.090;13.162;2023-04-24T01:35:49;99639.72;;;12.02;81.18
49835;BME280;35729;52.090;13.162;2023-04-24T01:38:17;99647.31;;;12.09;81.00
49835;BME280;35729;52.090;13.162;2023-04-24T01:40:49;99652.50;;;12.10;80.89
49835;BME280;35729;52.090;13.162;2023-04-24T01:43:18;99645.41;;;12.12;80.78
49835;BME280;35729;52.090;13.162;2023-04-24T01:45:47;99640.91;;;12.14;80.81
49835;BME280;35729;52.090;13.162;2023-04-24T01:48:15;99634.75;;;12.15;80.71
49835;BME280;35729;52.090;13.162;2023-04-24T01:50:44;99636.38;;;12.18;80.73
49835;BME280;35729;52.090;13.162;2023-04-24T01:53:12;99633.66;;;12.19;80.76
49835;BME280;35729;52.090;13.162;2023-04-24T01:55:41;99642.44;;;12.20;80.71
49835;BME280;35729;52.090;13.162;2023-04-24T01:58:12;99643.28;;;12.20;80.71
49835;BME280;35729;52.090;13.162;2023-04-24T02:00:40;99644.13;;;12.21;80.71
49835;BME280;35729;52.090;13.162;2023-04-24T02:03:09;99640.63;;;12.20;80.80
49835;BME280;35729;52.090;13.162;2023-04-24T02:05:37;99645.91;;;12.20;80.71
49835;BME280;35729;52.090;13.162;2023-04-24T02:08:06;99650.25;;;12.21;80.66
49835;BME280;35729;52.090;13.162;2023-04-24T02:10:35;99648.53;;;12.20;80.95
49835;BME280;35729;52.090;13.162;2023-04-24T02:13:03;99644.13;;;12.21;80.62
49835;BME280;35729;52.090;13.162;2023-04-24T02:15:34;99646.78;;;12.21;81.02
49835;BME280;35729;52.090;13.162;2023-04-24T02:18:03;99639.72;;;12.21;80.78
49835;BME280;35729;52.090;13.162;2023-04-24T02:20:32;99640.59;;;12.22;80.81
49835;BME280;35729;52.090;13.162;2023-04-24T02:23:02;99639.66;;;12.23;80.88
49835;BME280;35729;52.090;13.162;2023-04-24T02:25:30;99639.66;;;12.23;80.79
49835;BME280;35729;52.090;13.162;2023-04-24T02:27:59;99637.81;;;12.25;80.68
49835;BME280;35729;52.090;13.162;2023-04-24T02:30:28;99636.03;;;12.26;80.87
49835;BME280;35729;52.090;13.162;2023-04-24T02:32:59;99630.75;;;12.26;80.69
49835;BME280;35729;52.090;13.162;2023-04-24T02:35:28;99629.84;;;12.27;80.74
49835;BME280;35729;52.090;13.162;2023-04-24T02:37:57;99630.72;;;12.27;80.55
49835;BME280;35729;52.090;13.162;2023-04-24T02:40:25;99634.19;;;12.28;80.71
49835;BME280;35729;52.090;13.162;2023-04-24T02:42:54;99640.28;;;12.28;80.78
49835;BME280;35729;52.090;13.162;2023-04-24T02:45:22;99641.16;;;12.29;80.60
49835;BME280;35729;52.090;13.162;2023-04-24T02:47:51;99636.81;;;12.28;80.65
49835;BME280;35729;52.090;13.162;2023-04-24T02:50:28;99639.44;;;12.28;80.68
49835;BME280;35729;52.090;13.162;2023-04-24T02:52:57;99636.03;;;12.26;80.70
49835;BME280;35729;52.090;13.162;2023-04-24T02:55:25;99629.06;;;12.25;80.71
49835;BME280;35729;52.090;13.162;2023-04-24T02:57:54;99631.72;;;12.25;80.53
49835;BME280;35729;52.090;13.162;2023-04-24T03:00:23;99638.72;;;12.24;80.62
49835;BME280;35729;52.090;13.162;2023-04-24T03:02:51;99636.09;;;12.24;80.51
49835;BME280;35729;52.090;13.162;2023-04-24T03:05:20;99625.66;;;12.22;80.37
49835;BME280;35729;52.090;13.162;2023-04-24T03:07:51;99626.50;;;12.23;80.48
49835;BME280;35729;52.090;13.162;2023-04-24T03:10:20;99629.13;;;12.23;80.49
49835;BME280;35729;52.090;13.162;2023-04-24T03:12:48;99639.66;;;12.23;80.37
49835;BME280;35729;52.090;13.162;2023-04-24T03:15:17;99639.72;;;12.21;80.56
49835;BME280;35729;52.090;13.162;2023-04-24T03:17:46;99640.59;;;12.22;80.40
49835;BME280;35729;52.090;13.162;2023-04-24T03:20:15;99634.63;;;12.18;80.42
49835;BME280;35729;52.090;13.162;2023-04-24T03:22:44;99632.19;;;12.14;80.17
49835;BME280;35729;52.090;13.162;2023-04-24T03:25:15;99648.69;;;12.17;80.29
49835;BME280;35729;52.090;13.162;2023-04-24T03:27:43;99645.25;;;12.15;80.21
49835;BME280;35729;52.090;13.162;2023-04-24T03:30:12;99641.88;;;12.13;80.44
49835;BME280;35729;52.090;13.162;2023-04-24T03:32:41;99642.72;;;12.14;80.30
49835;BME280;35729;52.090;13.162;2023-04-24T03:35:09;99635.75;;;12.13;80.49
49835;BME280;35729;52.090;13.162;2023-04-24T03:37:38;99640.22;;;12.11;80.60
49835;BME280;35729;52.090;13.162;2023-04-24T03:40:08;99642.00;;;12.10;80.63
49835;BME280;35729;52.090;13.162;2023-04-24T03:42:39;99645.63;;;12.08;80.67
49835;BME280;35729;52.090;13.162;2023-04-24T03:45:09;99641.34;;;12.05;80.72
49835;BME280;35729;52.090;13.162;2023-04-24T03:47:38;99641.56;;;12.00;80.98
49835;BME280;35729;52.090;13.162;2023-04-24T03:50:07;99638.22;;;11.97;80.91
49835;BME280;35729;52.090;13.162;2023-04-24T03:52:36;99638.47;;;11.90;81.15
49835;BME280;35729;52.090;13.162;2023-04-24T03:55:05;99639.47;;;11.88;81.29
49835;BME280;35729;52.090;13.162;2023-04-24T03:57:34;99643.28;;;11.81;81.61
49835;BME280;35729;52.090;13.162;2023-04-24T04:00:06;99649.59;;;11.77;81.66
49835;BME280;35729;52.090;13.162;2023-04-24T04:02:35;99647.16;;;11.72;81.84
49835;BME280;35729;52.090;13.162;2023-04-24T04:05:04;99638.63;;;11.67;81.99
49835;BME280;35729;52.090;13.162;2023-04-24T04:07:33;99661.47;;;11.65;81.92
49835;BME280;35729;52.090;13.162;2023-04-24T04:10:02;99654.59;;;11.62;82.15
49835;BME280;35729;52.090;13.162;2023-04-24T04:12:32;99658.22;;;11.60;82.27
49835;BME280;35729;52.090;13.162;2023-04-24T04:15:00;99662.72;;;11.56;82.37
49835;BME280;35729;52.090;13.162;2023-04-24T04:17:32;99659.38;;;11.52;82.56
49835;BME280;35729;52.090;13.162;2023-04-24T04:20:08;99659.59;;;11.48;82.48
49835;BME280;35729;52.090;13.162;2023-04-24T04:22:37;99650.13;;;11.44;82.44
49835;BME280;35729;52.090;13.162;2023-04-24T04:25:06;99656.25;;;11.44;82.79
49835;BME280;35729;52.090;13.162;2023-04-24T04:27:34;99655.44;;;11.42;82.81
49835;BME280;35729;52.090;13.162;2023-04-24T04:30:04;99652.06;;;11.40;82.91
49835;BME280;35729;52.090;13.162;2023-04-24T04:32:35;99654.72;;;11.38;82.88
49835;BME280;35729;52.090;13.162;2023-04-24T04:35:04;99654.88;;;11.35;82.86
49835;BME280;35729;52.090;13.162;2023-04-24T04:37:33;99655.84;;;11.33;83.00
49835;BME280;35729;52.090;13.162;2023-04-24T04:40:02;99654.13;;;11.32;82.92
49835;BME280;35729;52.090;13.162;2023-04-24T04:42:33;99660.31;;;11.31;83.05
49835;BME280;35729;52.090;13.162;2023-04-24T04:45:06;99663.84;;;11.30;82.99
49835;BME280;35729;52.090;13.162;2023-04-24T04:47:39;99656.94;;;11.27;82.96
49835;BME280;35729;52.090;13.162;2023-04-24T04:50:08;99663.06;;;11.28;82.98
49835;BME280;35729;52.090;13.162;2023-04-24T04:52:37;99653.47;;;11.27;82.96
49835;BME280;35729;52.090;13.162;2023-04-24T04:55:06;99665.75;;;11.26;82.92
49835;BME280;35729;52.090;13.162;2023-04-24T04:57:35;99671.84;;;11.27;83.04
49835;BME280;35729;52.090;13.162;2023-04-24T05:00:05;99668.44;;;11.24;82.94
49835;BME280;35729;52.090;13.162;2023-04-24T05:02:35;99680.72;;;11.24;82.98
49835;BME280;35729;52.090;13.162;2023-04-24T05:05:08;99679.91;;;11.22;83.07
49835;BME280;35729;52.090;13.162;2023-04-24T05:07:36;99681.63;;;11.23;82.78
49835;BME280;35729;52.090;13.162;2023-04-24T05:10:06;99676.44;;;11.21;82.69
49835;BME280;35729;52.090;13.162;2023-04-24T05:12:35;99677.38;;;11.20;82.67
49835;BME280;35729;52.090;13.162;2023-04-24T05:15:04;99680.00;;;11.20;82.61
49835;BME280;35729;52.090;13.162;2023-04-24T05:17:32;99682.59;;;11.20;82.49
49835;BME280;35729;52.090;13.162;2023-04-24T05:20:01;99685.31;;;11.19;82.54
49835;BME280;35729;52.090;13.162;2023-04-24T05:22:33;99679.19;;;11.18;82.51
49835;BME280;35729;52.090;13.162;2023-04-24T05:25:01;99677.44;;;11.19;82.43
49835;BME280;35729;52.090;13.162;2023-04-24T05:27:31;99687.94;;;11.19;82.43
49835;BME280;35729;52.090;13.162;2023-04-24T05:29:59;99685.31;;;11.19;82.28
49835;BME280;35729;52.090;13.162;2023-04-24T05:32:28;99685.22;;;11.20;82.32
49835;BME280;35729;52.090;13.162;2023-04-24T05:34:56;99688.66;;;11.22;82.31
49835;BME280;35729;52.090;13.162;2023-04-24T05:37:24;99684.25;;;11.23;82.23
49835;BME280;35729;52.090;13.162;2023-04-24T05:39:56;99684.19;;;11.24;82.22
49835;BME280;35729;52.090;13.162;2023-04-24T05:42:24;99680.66;;;11.25;82.07
49835;BME280;35729;52.090;13.162;2023-04-24T05:44:53;99689.31;;;11.28;81.96
49835;BME280;35729;52.090;13.162;2023-04-24T05:47:21;99698.91;;;11.29;82.05
49835;BME280;35729;52.090;13.162;2023-04-24T05:49:50;99698.84;;;11.30;81.81
49835;BME280;35729;52.090;13.162;2023-04-24T05:52:18;99699.69;;;11.31;81.79
49835;BME280;35729;52.090;13.162;2023-04-24T05:54:46;99704.03;;;11.32;81.63
49835;BME280;35729;52.090;13.162;2023-04-24T05:57:18;99699.56;;;11.34;81.59
49835;BME280;35729;52.090;13.162;2023-04-24T05:59:46;99705.59;;;11.36;81.58
49835;BME280;35729;52.090;13.162;2023-04-24T06:02:15;99703.69;;;11.39;81.34
49835;BME280;35729;52.090;13.162;2023-04-24T06:04:44;99714.13;;;11.41;81.30
49835;BME280;35729;52.090;13.162;2023-04-24T06:07:13;99715.84;;;11.42;81.22
49835;BME280;35729;52.090;13.162;2023-04-24T06:09:41;99731.25;;;11.51;81.03
49835;BME280;35729;52.090;13.162;2023-04-24T06:12:09;99723.94;;;11.58;80.73
49835;BME280;35729;52.090;13.162;2023-04-24T06:14:40;99734.22;;;11.64;80.51
49835;BME280;35729;52.090;13.162;2023-04-24T06:17:09;99712.00;;;11.71;80.43
49835;BME280;35729;52.090;13.162;2023-04-24T06:19:37;99703.91;;;11.76;80.13
49835;BME280;35729;52.090;13.162;2023-04-24T06:22:06;99714.88;;;11.86;79.83
49835;BME280;35729;52.090;13.162;2023-04-24T06:24:35;99710.22;;;11.93;79.54
49835;BME280;35729;52.090;13.162;2023-04-24T06:27:03;99715.38;;;11.96;78.98
49835;BME280;35729;52.090;13.162;2023-04-24T06:29:32;99721.13;;;12.04;78.78
49835;BME280;35729;52.090;13.162;2023-04-24T06:32:04;99712.13;;;12.10;78.50
49835;BME280;35729;52.090;13.162;2023-04-24T06:34:33;99716.34;;;12.14;78.36
49835;BME280;35729;52.090;13.162;2023-04-24T06:37:02;99716.13;;;12.18;77.92
49835;BME280;35729;52.090;13.162;2023-04-24T06:39:30;99713.44;;;12.20;77.74
49835;BME280;35729;52.090;13.162;2023-04-24T06:41:58;99722.94;;;12.22;76.98
49835;BME280;35729;52.090;13.162;2023-04-24T06:44:27;99722.81;;;12.26;77.47
49835;BME280;35729;52.090;13.162;2023-04-24T06:46:55;99725.31;;;12.29;76.57
49835;BME280;35729;52.090;13.162;2023-04-24T06:49:39;99719.97;;;12.30;76.55
49835;BME280;35729;52.090;13.162;2023-04-24T06:52:08;99719.06;;;12.31;76.82
49835;BME280;35729;52.090;13.162;2023-04-24T06:54:36;99715.34;;;12.35;76.83
49835;BME280;35729;52.090;13.162;2023-04-24T06:57:05;99728.31;;;12.40;76.34
49835;BME280;35729;52.090;13.162;2023-04-24T06:59:33;99720.34;;;12.42;76.19
49835;BME280;35729;52.090;13.162;2023-04-24T07:02:02;99722.91;;;12.43;75.97
49835;BME280;35729;52.090;13.162;2023-04-24T07:04:31;99722.78;;;12.46;76.04
49835;BME280;35729;52.090;13.162;2023-04-24T07:07:02;99727.88;;;12.49;75.83
49835;BME280;35729;52.090;13.162;2023-04-24T07:09:32;99719.00;;;12.52;75.35
49835;BME280;35729;52.090;13.162;2023-04-24T07:12:00;99716.22;;;12.55;75.41
49835;BME280;35729;52.090;13.162;2023-04-24T07:14:29;99717.78;;;12.59;75.43
49835;BME280;35729;52.090;13.162;2023-04-24T07:16:57;99725.53;;;12.62;75.28
49835;BME280;35729;52.090;13.162;2023-04-24T07:19:26;99711.38;;;12.65;75.02
49835;BME280;35729;52.090;13.162;2023-04-24T07:21:55;99716.44;;;12.69;74.90
49835;BME280;35729;52.090;13.162;2023-04-24T07:24:26;99714.50;;;12.73;74.46
49835;BME280;35729;52.090;13.162;2023-04-24T07:26:55;99714.22;;;12.79;74.87
49835;BME280;35729;52.090;13.162;2023-04-24T07:29:23;99713.78;;;12.88;74.43
49835;BME280;35729;52.090;13.162;2023-04-24T07:31:52;99709.94;;;12.96;74.32
49835;BME280;35729;52.090;13.162;2023-04-24T07:34:21;99700.81;;;13.03;73.91
49835;BME280;35729;52.090;13.162;2023-04-24T07:36:50;99696.81;;;13.13;73.91
49835;BME280;35729;52.090;13.162;2023-04-24T07:39:18;99697.13;;;13.25;73.38
49835;BME280;35729;52.090;13.162;2023-04-24T07:41:49;99690.47;;;13.35;73.21
49835;BME280;35729;52.090;13.162;2023-04-24T07:44:18;99698.72;;;13.46;72.90
49835;BME280;35729;52.090;13.162;2023-04-24T07:46:47;99694.59;;;13.58;72.26
49835;BME280;35729;52.090;13.162;2023-04-24T07:49:15;99703.72;;;13.68;71.88
49835;BME280;35729;52.090;13.162;2023-04-24T07:51:45;99705.81;;;13.79;71.29
49835;BME280;35729;52.090;13.162;2023-04-24T07:54:13;99703.47;;;13.91;70.96
49835;BME280;35729;52.090;13.162;2023-04-24T07:56:43;99704.00;;;13.97;70.09
49835;BME280;35729;52.090;13.162;2023-04-24T07:59:14;99702.66;;;14.06;70.02
49835;BME280;35729;52.090;13.162;2023-04-24T08:01:42;99702.19;;;14.15;70.10
49835;BME280;35729;52.090;13.162;2023-04-24T08:04:11;99706.97;;;14.25;70.17
49835;BME280;35729;52.090;13.162;2023-04-24T08:06:39;99702.13;;;14.33;69.87
49835;BME280;35729;52.090;13.162;2023-04-24T08:09:08;99701.63;;;14.42;69.27
49835;BME280;35729;52.090;13.162;2023-04-24T08:11:36;99702.94;;;14.51;69.19
49835;BME280;35729;52.090;13.162;2023-04-24T08:14:04;99702.59;;;14.57;68.86
49835;BME280;35729;52.090;13.162;2023-04-24T08:16:35;99703.91;;;14.66;68.49
49835;BME280;35729;52.090;13.162;2023-04-24T08:19:04;99700.94;;;14.72;68.07
49835;BME280;35729;52.090;13.162;2023-04-24T08:21:32;99710.03;;;14.82;67.76
49835;BME280;35729;52.090;13.162;2023-04-24T08:24:01;99701.84;;;14.87;66.61
49835;BME280;35729;52.090;13.162;2023-04-24T08:26:33;99704.31;;;14.90;65.28
49835;BME280;35729;52.090;13.162;2023-04-24T08:29:01;99699.78;;;14.92;65.81
49835;BME280;35729;52.090;13.162;2023-04-24T08:31:30;99699.72;;;14.94;64.77
49835;BME280;35729;52.090;13.162;2023-04-24T08:34:01;99704.22;;;14.92;63.21
49835;BME280;35729;52.090;13.162;2023-04-24T08:36:30;99708.72;;;14.90;64.36
49835;BME280;35729;52.090;13.162;2023-04-24T08:38:58;99709.84;;;14.86;63.93
49835;BME280;35729;52.090;13.162;2023-04-24T08:41:27;99720.50;;;14.84;64.13
49835;BME280;35729;52.090;13.162;2023-04-24T08:43:56;99716.06;;;14.85;63.38
49835;BME280;35729;52.090;13.162;2023-04-24T08:46:25;99724.56;;;14.90;63.59
49835;BME280;35729;52.090;13.162;2023-04-24T08:48:54;99722.63;;;14.93;63.15
49835;BME280;35729;52.090;13.162;2023-04-24T08:51:26;99714.53;;;14.96;62.16
49835;BME280;35729;52.090;13.162;2023-04-24T08:53:55;99724.00;;;15.01;62.67
49835;BME280;35729;52.090;13.162;2023-04-24T08:56:25;99718.44;;;15.05;62.81
49835;BME280;35729;52.090;13.162;2023-04-24T08:58:56;99725.94;;;15.13;62.71
49835;BME280;35729;52.090;13.162;2023-04-24T09:01:26;99717.81;;;15.16;62.12
49835;BME280;35729;52.090;13.162;2023-04-24T09:03:55;99720.31;;;15.19;62.27
49835;BME280;35729;52.090;13.162;2023-04-24T09:06:26;99723.88;;;15.18;61.50
49835;BME280;35729;52.090;13.162;2023-04-24T09:08:57;99720.56;;;15.14;61.54
49835;BME280;35729;52.090;13.162;2023-04-24T09:11:30;99721.50;;;15.13;62.05
49835;BME280;35729;52.090;13.162;2023-04-24T09:13:59;99724.81;;;15.17;62.05
49835;BME280;35729;52.090;13.162;2023-04-24T09:16:27;99718.75;;;15.15;61.77
49835;BME280;35729;52.090;13.162;2023-04-24T09:18:56;99729.16;;;15.18;61.77
49835;BME280;35729;52.090;13.162;2023-04-24T09:21:31;99718.59;;;15.18;60.76
49835;BME280;35729;52.090;13.162;2023-04-24T09:24:02;99721.97;;;15.20;61.52
49835;BME280;35729;52.090;13.162;2023-04-24T09:26:32;99721.81;;;15.23;61.53
49835;BME280;35729;52.090;13.162;2023-04-24T09:29:01;99727.69;;;15.28;61.63
49835;BME280;35729;52.090;13.162;2023-04-24T09:31:30;99722.06;;;15.35;61.18
49835;BME280;35729;52.090;13.162;2023-04-24T09:34:00;99717.44;;;15.38;60.44
49835;BME280;35729;52.090;13.162;2023-04-24T09:36:35;99708.66;;;15.38;59.99
49835;BME280;35729;52.090;13.162;2023-04-24T09:39:06;99712.25;;;15.37;59.88
49835;BME280;35729;52.090;13.162;2023-04-24T09:41:44;99716.09;;;15.31;59.17
49835;BME280;35729;52.090;13.162;2023-04-24T09:44:15;99715.16;;;15.32;59.98
49835;BME280;35729;52.090;13.162;2023-04-24T09:46:49;99715.16;;;15.32;59.77
49835;BME280;35729;52.090;13.162;2023-04-24T09:49:22;99714.97;;;15.35;59.42
49835;BME280;35729;52.090;13.162;2023-04-24T09:52:03;99710.19;;;15.42;60.06
49835;BME280;35729;52.090;13.162;2023-04-24T09:54:32;99707.09;;;15.50;59.53
49835;BME280;35729;52.090;13.162;2023-04-24T09:57:02;99697.78;;;15.58;59.80
49835;BME280;35729;52.090;13.162;2023-04-24T09:59:42;99700.69;;;15.68;59.19
49835;BME280;35729;52.090;13.162;2023-04-24T10:02:17;99702.81;;;15.77;59.09
49835;BME280;35729;52.090;13.162;2023-04-24T10:04:54;99699.91;;;15.82;58.71
49835;BME280;35729;52.090;13.162;2023-04-24T10:07:28;99700.56;;;15.86;58.84
49835;BME280;35729;52.090;13.162;2023-04-24T10:09:56;99700.56;;;15.86;58.17
49835;BME280;35729;52.090;13.162;2023-04-24T10:15:36;99699.84;;;15.84;57.99
49835;BME280;35729;52.090;13.162;2023-04-24T10:18:06;99685.69;;;15.85;57.79
49835;BME280;35729;52.090;13.162;2023-04-24T10:20:36;99694.25;;;15.88;57.71
49835;BME280;35729;52.090;13.162;2023-04-24T10:23:07;99693.78;;;15.96;57.38
49835;BME280;35729;52.090;13.162;2023-04-24T10:25:36;99699.38;;;16.06;57.16
49835;BME280;35729;52.090;13.162;2023-04-24T10:28:05;99692.66;;;16.15;56.57
49835;BME280;35729;52.090;13.162;2023-04-24T10:30:34;99692.28;;;16.21;56.14
49835;BME280;35729;52.090;13.162;2023-04-24T10:33:04;99701.00;;;16.23;55.95
49835;BME280;35729;52.090;13.162;2023-04-24T10:35:35;99693.03;;;16.23;55.57
49835;BME280;35729;52.090;13.162;2023-04-24T10:38:10;99708.81;;;16.24;55.81
49835;BME280;35729;52.090;13.162;2023-04-24T10:40:40;99711.47;;;16.24;56.12
49835;BME280;35729;52.090;13.162;2023-04-24T10:43:08;99702.88;;;16.21;56.59
49835;BME280;35729;52.090;13.162;2023-04-24T10:45:37;99715.06;;;16.09;56.05
49835;BME280;35729;52.090;13.162;2023-04-24T10:48:07;99704.19;;;15.99;56.97
49835;BME280;35729;52.090;13.162;2023-04-24T10:50:43;99710.69;;;15.93;57.45
49835;BME280;35729;52.090;13.162;2023-04-24T10:53:19;99704.47;;;15.94;57.47
49835;BME280;35729;52.090;13.162;2023-04-24T10:55:50;99705.31;;;15.95;57.86
49835;BME280;35729;52.090;13.162;2023-04-24T10:58:22;99703.53;;;15.95;58.04
49835;BME280;35729;52.090;13.162;2023-04-24T11:00:58;99704.19;;;15.99;58.15
49835;BME280;35729;52.090;13.162;2023-04-24T11:03:28;99697.66;;;16.05;58.39
49835;BME280;35729;52.090;13.162;2023-04-24T11:06:02;99694.38;;;16.16;58.36
49835;BME280;35729;52.090;13.162;2023-04-24T11:08:37;99691.63;;;16.32;58.36
49835;BME280;35729;52.090;13.162;2023-04-24T11:11:11;99698.78;;;16.44;57.97
49835;BME280;35729;52.090;13.162;2023-04-24T11:14:01;99694.63;;;16.54;57.25
49835;BME280;35729;52.090;13.162;2023-04-24T11:16:30;99694.78;;;16.66;57.16
49835;BME280;35729;52.090;13.162;2023-04-24T11:19:02;99697.50;;;16.78;56.81
49835;BME280;35729;52.090;13.162;2023-04-24T11:21:31;99687.63;;;16.95;55.13
49835;BME280;35729;52.090;13.162;2023-04-24T11:24:27;99687.69;;;17.08;53.86
49835;BME280;35729;52.090;13.162;2023-04-24T11:26:58;99699.25;;;17.20;54.02
49835;BME280;35729;52.090;13.162;2023-04-24T11:29:58;99699.59;;;17.28;49.09
49835;BME280;35729;52.090;13.162;2023-04-24T11:32:28;99692.59;;;17.27;49.34
49835;BME280;35729;52.090;13.162;2023-04-24T11:34:58;99705.31;;;17.22;49.27
49835;BME280;35729;52.090;13.162;2023-04-24T11:37:28;99698.63;;;17.16;49.11
49835;BME280;35729;52.090;13.162;2023-04-24T11:40:00;99708.47;;;17.14;47.98
49835;BME280;35729;52.090;13.162;2023-04-24T11:42:29;99707.81;;;17.10;48.60
49835;BME280;35729;52.090;13.162;2023-04-24T11:45:01;99713.22;;;17.09;47.92
49835;BME280;35729;52.090;13.162;2023-04-24T11:47:35;99715.00;;;17.08;47.48
49835;BME280;35729;52.090;13.162;2023-04-24T11:50:08;99704.34;;;17.10;46.24
49835;BME280;35729;52.090;13.162;2023-04-24T11:52:39;99727.97;;;17.13;47.36
49835;BME280;35729;52.090;13.162;2023-04-24T11:55:23;99716.16;;;17.04;39.45
49835;BME280;35729;52.090;13.162;2023-04-24T11:57:54;99722.53;;;17.02;41.03
49835;BME280;35729;52.090;13.162;2023-04-24T12:00:26;99714.84;;;16.97;43.10
49835;BME280;35729;52.090;13.162;2023-04-24T12:03:04;99730.69;;;16.99;41.06
49835;BME280;35729;52.090;13.162;2023-04-24T12:05:34;99726.03;;;17.02;42.42
49835;BME280;35729;52.090;13.162;2023-04-24T12:08:02;99716.28;;;17.03;41.57
49835;BME280;35729;52.090;13.162;2023-04-24T12:10:34;99710.84;;;17.19;40.60
49835;BME280;35729;52.090;13.162;2023-04-24T12:13:02;99713.41;;;17.33;41.23
49835;BME280;35729;52.090;13.162;2023-04-24T12:15:31;99706.34;;;17.47;41.44
49835;BME280;35729;52.090;13.162;2023-04-24T12:17:59;99702.84;;;17.59;41.54
49835;BME280;35729;52.090;13.162;2023-04-24T12:20:30;99706.47;;;17.71;38.76
49835;BME280;35729;52.090;13.162;2023-04-24T12:22:59;99710.09;;;17.83;39.76
49835;BME280;35729;52.090;13.162;2023-04-24T12:25:29;99718.19;;;17.94;37.97
49835;BME280;35729;52.090;13.162;2023-04-24T12:28:12;99720.66;;;17.97;37.29
49835;BME280;35729;52.090;13.162;2023-04-24T12:30:42;99720.84;;;17.94;38.84
49835;BME280;35729;52.090;13.162;2023-04-24T12:33:11;99708.84;;;17.88;38.05
49835;BME280;35729;52.090;13.162;2023-04-24T12:35:40;99703.41;;;17.90;38.10
49835;BME280;35729;52.090;13.162;2023-04-24T12:38:10;99711.63;;;18.00;37.38
49835;BME280;35729;52.090;13.162;2023-04-24T12:40:39;99721.59;;;18.09;37.93
49835;BME280;35729;52.090;13.162;2023-04-24T12:43:16;99716.91;;;18.13;35.86
49835;BME280;35729;52.090;13.162;2023-04-24T12:45:51;99720.09;;;18.18;36.33
49835;BME280;35729;52.090;13.162;2023-04-24T12:48:20;99713.63;;;18.22;37.06
49835;BME280;35729;52.090;13.162;2023-04-24T12:50:48;99702.38;;;18.31;37.80
49835;BME280;35729;52.090;13.162;2023-04-24T12:53:17;99709.91;;;18.37;36.85
49835;BME280;35729;52.090;13.162;2023-04-24T12:55:45;99703.84;;;18.35;37.08
49835;BME280;35729;52.090;13.162;2023-04-24T12:58:21;99714.47;;;18.22;35.72
49835;BME280;35729;52.090;13.162;2023-04-24T13:00:50;99709.47;;;18.18;37.30
49835;BME280;35729;52.090;13.162;2023-04-24T13:03:19;99701.28;;;18.21;37.48
49835;BME280;35729;52.090;13.162;2023-04-24T13:05:48;99702.38;;;18.31;37.14
49835;BME280;35729;52.090;13.162;2023-04-24T13:08:16;99699.56;;;18.46;36.57